Benvolgut visitant, si us plau, ingressa Recuperar contrasenya
AVAMET paisatges
Union Alcoyana

Benejúzar Las Monjas

Dades diàries. Acumulats / Últims 30 dies disponibles

Data Temperatura (°C) Humitat rel. (%) Pressió rel. (hPa) Vent (km/h) Precipitació
Mínima Mitjana Màxima Amplitud
tèrmica
Mínima Mitjana Màxima Mínima Mitjana Màxima Predom. Mitjana Ràfega
màxima
Total
(mm)
Índex-n
Mínima Mitjana Màxima Mínima Mitjana Màxima n
0 a 1
P0 max
mm 5'
Dades mensuals acumulades fins l'últim dia disponible
05/2022 10,9 13,3 16,8 18,8 17,0 25,0 29,6 18,7 33 72 95 1.005 1.014 1.020   4,9 43,9 39,3
Dades anuals acumulades fins l'últim dia disponible
2022 1,6 8,9 18,0 13,5 11,0 19,2 29,6 28,0 11 74 99 995 1.018 1.031   5,4 66,2 425,6
Últims 30 dies disponibles
17-05-2022 16,8     22,6     29,6 12,8 44 70 88 1.013 1.014 1.016 SE 4,2 33,1 0,0
16-05-2022 16,2     22,3     28,9 12,7 40 72 93 1.013 1.014 1.016 ESE 4,3 29,5 0,0
15-05-2022 14,3     20,8     28,0 13,7 36 66 89 1.011 1.012 1.014 ESE 4,0 27,7 0,0
14-05-2022 14,6     20,5     26,4 11,8 33 67 93 1.012 1.015 1.017 ESE 4,9 29,5 0,0
13-05-2022 14,5     19,8     25,9 11,4 53 77 94 1.016 1.017 1.018 SSE 5,6 42,1 0,0
12-05-2022 12,0     18,5     23,8 11,8 49 76 94 1.015 1.016 1.017 E 5,5 38,5 0,0
11-05-2022 11,8     18,8     25,8 14,0 38 68 90 1.016 1.017 1.019 ESE 5,2 31,3 0,0
10-05-2022 12,0     18,7     24,6 12,6 42 64 87 1.018 1.019 1.020 SE 4,2 27,7 0,0
09-05-2022 12,6     18,7     24,5 11,9 37 68 93 1.017 1.018 1.020 ESE 4,6 33,1 0,0
08-05-2022 12,2     18,8     26,3 14,1 33 64 86 1.013 1.015 1.017 SSE 5,1 34,9 0,0
07-05-2022 12,4     18,2     25,3 12,9 38 66 89 1.015 1.016 1.017 SSE 4,4 38,5 0,0
06-05-2022 10,9     17,1     23,9 13,0 51 76 94 1.015 1.016 1.019 SE 4,9 31,3 0,3
05-05-2022 13,0     17,6     24,2 11,2 49 68 94 1.013 1.015 1.019 N 6,2 31,3 19,5
04-05-2022 13,2     14,5     17,0 3,8 85 92 95 1.009 1.010 1.013 NE 3,6 33,1 19,5 0,53 3,30
03-05-2022 12,2     16,8     22,5 10,3 56 78 94 1.005 1.007 1.009 NE 5,7 43,9 0,0
02-05-2022 14,2     17,5     21,3 7,1 62 81 92 1.005 1.008 1.011 E 6,2 38,5 0,0
01-05-2022 13,2     19,0     27,3 14,1 44 65 79 1.010 1.013 1.016 S 5,1 31,3 0,0
30-04-2022 11,0     18,5     26,6 15,6 33 62 89 1.014 1.017 1.020 SW 5,9 36,7 0,0
29-04-2022 11,6     16,3     21,4 9,8 49 72 90 1.017 1.019 1.020 SSE 6,1 40,3 3,8
28-04-2022 11,5     13,8     15,6 4,1 77 90 96 1.014 1.015 1.018 ENE 2,2 16,6 3,8 0,04 0,40
27-04-2022 12,8     14,6     18,7 5,9 50 82 94 1.010 1.013 1.015 S 2,6 23,8 1,3
26-04-2022 10,6     15,1     20,2 9,6 45 74 92 1.009 1.010 1.012 E 4,2 25,6 0,0
25-04-2022 10,9     16,0     21,4 10,5 45 73 89 1.007 1.009 1.010 SE 4,7 27,7 0,0
24-04-2022 8,9     16,1     23,8 14,9 34 59 80 1.007 1.008 1.009 SW 5,7 34,9 0,2
23-04-2022 11,7     16,6     21,3 9,6 28 55 84 995 1.000 1.007 W 14,8 62,3 0,2
22-04-2022 11,1     15,4     19,4 8,3 51 66 78 996 1.000 1.003 SW 3,8 25,6 0,0
21-04-2022 11,7     16,2     22,1 10,4 37 53 69 1.000 1.002 1.003 NW 10,4 40,3 23,9
20-04-2022 8,1     12,1     15,0 6,9 62 79 95 997 998 1.000 ESE 7,0 47,9 23,9 0,68 15,30
25-03-2022 13,6     14,4     15,3 1,7 79 85 92 1.009 1.011 1.013 E 15,9 66,2 2,8 0,27 0,80
24-03-2022 13,4     14,7     16,3 2,9 79 86 93 1.014 1.015 1.016 E 15,6 49,7 30,7
Últims 13 mesos disponibles
03/2022 5,8 10,3 18,0 13,6 13,4 17,7 23,2 17,4 54 81 95 1.007 1.014 1.022 E 7,1 66,2 269,5
02/2022 4,5 7,7 11,9 12,8 14,8 19,0 25,3 20,8 46 71 89 1.014 1.021 1.027 E 4,8 47,9 8,8
01/2022 1,6 5,6 14,2 10,5 11,0 16,7 24,2 22,6 35 73 93 1.011 1.023 1.029 E 4,4 56,9 50,9
12/2021 6,1 10,0 15,1 13,8 12,9 18,6 24,8 18,7 45 71 90 1.006 1.017 1.024 W 5,6 60,5 3,0
11/2021 5,7 9,3 14,4 12,8 13,9 17,3 20,3 14,6 44 70 92 1.003 1.012 1.023 WNW 6,9 56,9 46,5
04/2021 7,3 11,2 14,3 15,0 13,9 19,9 28,8 21,5 57 78 91 1.008 1.013 1.020 E 5,4 53,3 73,4
03/2021 4,1 8,9 12,6 13,4 12,7 18,9 25,0 20,9 58 75 94 1.009 1.018 1.024 SSE 5,3 53,3 128,8
02/2021 5,8 9,7 16,7 14,0 15,5 19,2 25,3 19,5 42 69 87 999 1.015 1.030 SSE 6,0 73,4 0,6
01/2021 1,5 6,6 14,4 11,2 8,6 17,1 28,1 26,6 40 62 94 1.001 1.013 1.024 OSO 6,7 75,2 12,1
Tots els anys disponibles
Temperatura (°C)
Humitat relativa (%)
Velocitat del vent i ràfega màxima (km/h)
Direcció del vent (°)
Pressió (hPa)
Precipitació (mm)
Nota sobre les dades: s'avisa a l'usuari de la provisionalitat i no oficialitat d'aquestes dades
Logo AVAMET blanc
Web allotjada a Sollutia
Llicència de Creative CommonsLa web d'AVAMET i els seus continguts estan subjectes a una llicència de
Reconeixement - No Comercial - Compartir igual
Avís legal - Política de privacitat - Política de cookies
NOVES ESTACIONS: Sant Mateu - IES Maestrat (Soci)  / el Palomar (Ajuntament/Soci) / Atzeneta del Maestrat - Pla de Meanes (Ajuntament/Soci) / Onda - Sant Gil (Soci) / Onda - Ràtils CR Cota 220 (Soci) / la Vila Joiosa (Ajuntament/Soci) / Miramar - Platja (Ajuntament/Soci) / Massanassa - IES Massanassa (Soci) / Culla - Pla de les Vinyes (Ajuntament/Soci) / Oliva - Col·legi - El Rebollet / Villena - Hondo de Carboneras (Soci) / Ontinyent - les Aigües (Soci) / Castelló de la Plana - IES Bovalar (Soci) /  Villena - las Quebradas (Soci) / la Salzadella (Ajuntament/Soci)  - - -